OIYY  Shahid Sadooghi  Airport

Yazd, Iran

Add Bookmark
ICAO OIYY
IATA AZD
Type Airport
Status Operational
Latitude
31° 54' 17" N
31.904900
Longitude
54° 16' 35" E
54.276501
Local (DST + 5) UTC (GMT + 4)
Apr 26, 2015 03:47 Apr 25, 2015 23:17
Sunrise-Sunset Local UTC
Begin Civil Twilight 05:45 01:15
Sunrise 06:10 01:40
Sunset 07:30 15:00
End Civil Twilight 07:56 15:26
VFR
VFR
MVFR
MVFR
IFR
VFR
LIFR
VFR
Unknown
Unavailable

Current Weather

METAR Observed MVFR
OIYY 252300Z 30012KT 8000 NSC 14/M12 Q1023 Sat, Apr 25, 2015 @ 23:00 UTC
(17 Minutes ago)
Marginal Visual Flight Rules
Wind Visibility Conditions
300° at 12 knots (22 kph) 7,998 m
  • No significant weather
Temperatures Readings Precipitation
Current Temp
14°C
57°F
Dewpoint
-12°C
10°F
Humidity 15%
Altimeter 30.21" Hg
Sea Level Pressure 1,023 mb
Field Elevation
1,236 m
4,055 ft
None Recorded

Forecast Weather

TAF
TAF OIYY 252000Z 2521/2606 27007MPS 4000 DU FEW040 TAF OIIP 252000Z 2521/2606 32009MPS 7000 SKC TEMPO 2600/2604 34010G15MPS

Select a Time Period

From To
Sat, Apr 25, 2015 @ 21:00 UTC Sun, Apr 26, 2015 @ 06:00 UTC
Wind Visibility Clouds Conditions
270° at 14 knots (26 kph)
4,007 m
  • Few at 4,000 ft AGL
  • Dust
From To Temporary
Sun, Apr 26, 2015 @ 00:00 UTC Sun, Apr 26, 2015 @ 04:00 UTC Changes expected for less than half the time period
Wind Conditions
340° at 19 knots (35 kph)
Gusting to 29 knots (54 kph)
  • No significant weather
-
-

CheckWX.com is intended as a tool to help pilots better visualize weather data. It is not intended as a substitute for an official weather briefing obtained from a Flight Service Station. CheckWX.com does not meet the FAA requirements for an official pre-flight weather briefing. Therefore, it's important that pilots still call and obtain an official FSS pre-flight weather briefing.

© 2007-2015 CheckWX.com
23:17:32 UTC